METAR Data
IDs: Format: Raw Decoded Include TAF

Data at: 1141 UTC 16 Feb 2019

PFKW 161056Z AUTO 19012KT 10SM BKN060 OVC090 M02/M03 A2989 RMK AO2 SLPNO T10171033 FZRANO
PFKW 160956Z AUTO 19012KT 10SM FEW036 SCT085 M02/M04 A2987 RMK AO2 SLPNO T10221039 FZRANO
PFKW 160856Z AUTO 19011KT 10SM CLR M02/M03 A2984 RMK AO2 SLPNO T10221033 400061022 53024 FZRANO
PFKW 160756Z AUTO 19015KT 10SM CLR M02/M03 A2981 RMK AO2 SLPNO T10171028 FZRANO
PFKW 160704Z AUTO 19014KT 10SM SCT017 BKN034 OVC050 00/M02 A2979 RMK AO2 FZRANO
PFKW 160656Z AUTO 19016KT 10SM SCT015 BKN020 OVC034 00/M02 A2979 RMK AO2 SLPNO T00001017 FZRANO
PFKW 160649Z AUTO 19015G21KT 10SM BKN015 BKN020 00/M02 A2979 RMK AO2 FZRANO
PFKW 160556Z AUTO 19015KT 10SM BKN013 BKN021 OVC029 00/M02 A2977 RMK AO2 SLPNO 6//// T00001017 10006 21011 53015 FZRANO
PFKW 160456Z AUTO 19014KT 10SM OVC016 01/M02 A2975 RMK AO2 UPE06 SLPNO P0000 T00061017 FZRANO
PFKW 160356Z AUTO 17016G23KT 10SM UP BKN014 OVC021 00/M01 A2973 RMK AO2 UPB43SNE43 SLPNO P0000 T00001006 FZRANO
PFKW 160341Z AUTO 17009KT 5SM -SN BR OVC016 M01/M01 A2973 RMK AO2 P0000 FZRANO
PFKW 160333Z AUTO 16008KT 2 1/2SM -SN BR OVC016 M01/M01 A2973 RMK AO2 P0000 FZRANO
PFKW 160306Z AUTO 14009KT 1 1/2SM -SN BR OVC016 M01/M02 A2973 RMK AO2 P0000 FZRANO
PFKW 160256Z AUTO 14011KT 1 1/2SM -SN BR BKN014 OVC019 M01/M02 A2972 RMK AO2 UPE52SNB52 SLPNO P0000 6//// T10111017 FZRANO
PFKW 160228Z AUTO 12009KT 2SM UP BR FEW005 BKN021 OVC028 M01/M02 A2972 RMK AO2 P0000 FZRANO
PFKW 160210Z AUTO 12010KT 2SM UP BR FEW021 OVC029 M01/M02 A2972 RMK AO2 P0000 FZRANO
PFKW 160156Z AUTO 11009KT 2SM UP BR FEW006 SCT019 OVC031 M01/M02 A2973 RMK AO2 UPB41SNB0056E41 SLPNO T10111017 FZRANO
PFKW 160131Z AUTO 13013KT 1 1/2SM -SN BR SCT006 BKN011 OVC024 M01/M02 A2974 RMK AO2 SNB0056 FZRANO
PFKW 160123Z AUTO 14016G22KT 1SM -SN BR SCT006 BKN014 OVC027 M01/M02 A2974 RMK AO2 SNB0056 FZRANO
PFKW 160109Z AUTO 13016KT 1 1/4SM -SN BR M01/M02 A2973 RMK AO2 SNB0056 FZRANO
PFKW 152356Z AUTO 11012KT 10SM -RA FEW016 BKN039 OVC047 A2975 RMK AO2 RAB2258E25B53SNB25E53 SLPNO P0000 6//// FZRANO $
PFKW 152342Z AUTO 09010KT 5SM -SN FEW012 BKN034 OVC045 A2974 RMK AO2 RAB2258E25SNB25 P0000 FZRANO $
PFKW 152337Z AUTO 10011KT 2SM -SN FEW012 BKN018 OVC045 A2973 RMK AO2 RAB2258E25SNB25 PRESFR P0000 FZRANO $
PFKW 152326Z AUTO 12015G21KT 1 3/4SM -SN BKN014 OVC018 A2975 RMK AO2 RAB2258E25SNB25 P0000 FZRANO $
PFKW 152314Z AUTO 15010KT 7SM -RA BKN018 BKN023 OVC041 A2977 RMK AO2 RAB2258 P0000 FZRANO $
PFKW 152256Z AUTO 14012KT 10SM FEW027 BKN042 OVC050 A2977 RMK AO2 SLPNO FZRANO $
PFKW 151856Z AUTO 08011KT 10SM CLR M09/M11 A2985 RMK AO2 SLP107 T10891106 FZRANO
PFKW 151756Z AUTO 07011KT 10SM CLR M08/M09 A2986 RMK AO2 SLP113 T10831094 11022 21083 56025 FZRANO
PFKW 151656Z AUTO 07011KT 10SM CLR M06/M07 A2987 RMK AO2 SLP117 T10611067 FZRANO
PFKW 151556Z AUTO 07011KT 10SM CLR M04/M05 A2990 RMK AO2 SLP125 T10391050 FZRANO
PFKW 151518Z AUTO 06007KT 10SM SCT022 M04/M06 A2992 RMK AO2 FZRANO
PFKW 151456Z AUTO 09006KT 10SM OVC022 M03/M05 A2994 RMK AO2 SLP138 T10281050 58020 FZRANO
PFKW 151356Z AUTO 12006KT 10SM OVC022 M03/M04 A2996 RMK AO2 SLP145 T10281044 FZRANO
PFKW 151256Z AUTO 09006KT 10SM OVC024 M02/M04 A2998 RMK AO2 SLP153 T10221044 FZRANO
PFKW 151241Z AUTO 13005KT 10SM SCT013 BKN020 OVC027 M03/M04 A2999 RMK AO2 FZRANO
PFKW 151156Z AUTO 14009KT 10SM OVC011 M03/M05 A3000 RMK AO2 SLP158 70001 T10281050 11022 21033 50004 FZRANO
PFKW 151056Z AUTO 17009KT 10SM OVC009 M03/M04 A3000 RMK AO2 SLP161 T10281044 FZRANO
PFKW 150956Z AUTO 20008KT 10SM BKN009 OVC028 M02/M03 A2999 RMK AO2 SLP156 T10221033 FZRANO
PFKW 150856Z AUTO 20009KT 10SM OVC012 M02/M03 A2998 RMK AO2 SLP154 T10221033 410221100 53010 FZRANO
PFKW 150836Z AUTO 20013KT 10SM OVC010 M02/M03 A2998 RMK AO2 FZRANO
PFKW 150756Z AUTO 20010KT 10SM OVC008 M03/M05 A2997 RMK AO2 SLP149 T10281050 FZRANO
PFKW 150712Z AUTO 21008KT 10SM OVC008 M03/M04 A2996 RMK AO2 FZRANO
PFKW 150656Z AUTO 21009KT 10SM OVC010 M03/M05 A2996 RMK AO2 CIG 008V013 SLP144 T10281050 FZRANO
PFKW 150556Z AUTO 20011KT 10SM OVC014 M02/M04 A2995 RMK AO2 SLP144 60001 T10221044 11022 21044 53010 FZRANO
PFKW 150356Z AUTO 19010KT 10SM OVC017 M03/M06 A2992 RMK AO2 SLP134 T10331056 FZRANO
PFKW 150256Z AUTO 17008KT 10SM OVC021 M03/M06 A2992 RMK AO2 SLP133 60001 T10331056 58004 FZRANO
PFKW 150219Z AUTO 16008KT 10SM FEW010 SCT014 OVC021 M03/M04 A2992 RMK AO2 FZRANO
PFKW 150156Z AUTO 12007KT 10SM BKN014 OVC018 M04/M05 A2993 RMK AO2 UPB30E36SNE30 SLP134 P0001 T10391050 FZRANO
PFKW 150114Z AUTO 13008KT 3SM -SN BR FEW006 BKN020 OVC025 M04/M05 A2993 RMK AO2 P0001 FZRANO
PFKW 150111Z AUTO 13008KT 1 1/2SM -SN BR FEW006 BKN020 OVC025 M04/M05 A2993 RMK AO2 P0000 FZRANO
PFKW 150108Z AUTO 13008KT 3/4SM -SN BR SCT006 BKN012 OVC023 M04/M05 A2993 RMK AO2 P0000 FZRANO
PFKW 150101Z AUTO 12007KT 1/2SM -SN FZFG BKN006 BKN012 OVC026 M04/M05 A2993 RMK AO2 CIG 005V008 P0000 FZRANO
PFKW 150056Z AUTO 12007KT 1SM -SN BR BKN006 BKN013 OVC035 M04/M05 A2993 RMK AO2 CIG 005V008 SLP136 P0000 T10441050 FZRANO
PFKW 150036Z AUTO 11007KT 1/2SM SN FZFG BKN006 OVC013 M04/M06 A2993 RMK AO2 P0000 FZRANO
PFKW 150013Z AUTO 12009KT 3/4SM -SN BR OVC010 M04/M06 A2994 RMK AO2 CIG 006V013 P0000 FZRANO